Time;durP1;ratioP1;P1;durP2;ratioP2;P2;SDS_P1;SDS_P2;PMS_P1;PMS_P2;Temp;Humidity;BMP_temperature;BMP_pressure;BME280_temperature;BME280_humidity;BME280_pressure;Samples;Min_cycle;Max_cycle;Signal;HPM_P1;HPM_P2
2024/04/06 00:01:37;;;;;;;6.28;3.47;;;;;;;11.98;100.00;96709.47;5058710;28;20048;-67
2024/04/06 00:04:04;;;;;;;7.10;2.72;;;;;;;11.89;100.00;96710.91;5056463;28;20037;-65
2024/04/06 00:06:29;;;;;;;5.72;2.67;;;;;;;11.66;100.00;96711.78;5058104;28;20064;-66
2024/04/06 00:08:54;;;;;;;8.00;3.35;;;;;;;11.59;100.00;96703.47;5058956;28;20045;-69
2024/04/06 00:11:20;;;;;;;7.60;3.00;;;;;;;11.64;100.00;96698.44;5054297;28;20282;-66
2024/04/06 00:13:45;;;;;;;5.70;2.88;;;;;;;11.68;100.00;96709.47;5058926;28;20554;-67
2024/04/06 00:16:11;;;;;;;4.03;2.30;;;;;;;11.71;100.00;96703.25;5054290;28;20036;-68
2024/04/06 00:18:37;;;;;;;5.95;2.42;;;;;;;11.63;100.00;96704.31;5058716;28;20033;-68
2024/04/06 00:21:02;;;;;;;6.68;2.78;;;;;;;11.66;100.00;96704.34;5059926;28;20675;-66
2024/04/06 00:23:28;;;;;;;8.75;2.97;;;;;;;11.61;100.00;96701.16;5075260;28;20040;-67
2024/04/06 00:25:54;;;;;;;5.28;3.13;;;;;;;11.22;100.00;96702.22;5046818;28;20463;-65
2024/04/06 00:28:19;;;;;;;7.75;3.92;;;;;;;10.92;100.00;96696.69;5058388;28;20043;-66
2024/04/06 00:30:45;;;;;;;5.57;3.13;;;;;;;10.95;100.00;96706.13;5063673;28;20083;-68
2024/04/06 00:33:10;;;;;;;8.63;3.40;;;;;;;11.04;100.00;96701.19;5058359;28;20438;-66
2024/04/06 00:35:36;;;;;;;5.10;3.17;;;;;;;10.97;100.00;96703.84;5057517;28;20044;-67
2024/04/06 00:38:01;;;;;;;9.82;3.50;;;;;;;10.86;100.00;96709.16;5062369;28;20082;-68
2024/04/06 00:40:27;;;;;;;6.78;3.35;;;;;;;10.93;100.00;96716.66;5062683;28;20468;-65
2024/04/06 00:42:52;;;;;;;5.65;2.90;;;;;;;11.05;100.00;96703.53;5054560;28;20593;-66
2024/04/06 00:45:17;;;;;;;7.30;3.35;;;;;;;11.01;100.00;96712.88;5059825;28;20160;-68
2024/04/06 00:47:43;;;;;;;5.70;2.92;;;;;;;11.06;100.00;96712.56;5063150;28;20041;-68
2024/04/06 00:50:09;;;;;;;7.22;2.70;;;;;;;10.85;100.00;96711.06;5029237;28;20064;-68
2024/04/06 00:52:34;;;;;;;5.22;2.65;;;;;;;10.77;100.00;96706.66;5057762;28;20417;-67
2024/04/06 00:55:00;;;;;;;7.38;2.80;;;;;;;10.84;100.00;96712.25;5063786;28;20106;-67
2024/04/06 00:57:27;;;;;;;7.10;3.08;;;;;;;10.85;100.00;96713.03;5059084;28;20074;-66
2024/04/06 00:59:52;;;;;;;7.30;3.03;;;;;;;10.62;100.00;96707.59;5063347;28;20131;-67
2024/04/06 01:02:18;;;;;;;5.80;2.92;;;;;;;10.51;100.00;96710.13;5076679;28;20036;-66
2024/04/06 01:04:43;;;;;;;4.78;2.80;;;;;;;10.50;100.00;96719.53;5062983;28;20037;-67
2024/04/06 01:07:09;;;;;;;4.85;2.90;;;;;;;10.57;100.00;96713.38;5067929;28;20127;-68
2024/04/06 01:09:34;;;;;;;6.10;2.88;;;;;;;10.61;100.00;96715.00;5070563;28;20127;-67
2024/04/06 01:12:00;;;;;;;5.63;2.72;;;;;;;10.59;100.00;96714.59;5056172;28;20530;-67
2024/04/06 01:14:25;;;;;;;5.60;2.80;;;;;;;10.61;100.00;96716.97;5057991;28;20095;-67
2024/04/06 01:16:51;;;;;;;5.80;2.70;;;;;;;10.53;100.00;96721.53;5061602;28;20128;-68
2024/04/06 01:19:16;;;;;;;4.07;2.78;;;;;;;10.57;100.00;96724.31;5038923;28;20040;-65
2024/04/06 01:21:42;;;;;;;6.88;2.80;;;;;;;10.60;100.00;96732.59;5062132;28;20140;-67
2024/04/06 01:24:23;;;;;;;6.40;2.70;;;;;;;10.57;100.00;96733.34;5058234;28;20070;-67
2024/04/06 01:26:48;;;;;;;6.13;2.80;;;;;;;10.49;100.00;96732.41;5060661;28;20090;-67
2024/04/06 01:29:14;;;;;;;4.43;2.35;;;;;;;10.47;100.00;96736.69;5057427;28;20509;-66
2024/04/06 01:31:40;;;;;;;5.10;2.28;;;;;;;10.48;100.00;96746.50;5061640;28;20048;-67
2024/04/06 01:34:08;;;;;;;4.88;3.08;;;;;;;10.40;100.00;96747.50;5055381;28;20040;-66
2024/04/06 01:36:34;;;;;;;5.05;2.65;;;;;;;10.29;100.00;96744.56;5044073;28;20048;-66
2024/04/06 01:38:59;;;;;;;6.85;3.35;;;;;;;10.28;100.00;96746.50;5061599;28;20655;-66
2024/04/06 01:41:24;;;;;;;4.25;2.45;;;;;;;10.24;100.00;96753.84;5062843;28;20051;-67
2024/04/06 01:43:50;;;;;;;8.07;2.60;;;;;;;10.21;100.00;96749.09;5087680;28;20064;-64
2024/04/06 01:46:15;;;;;;;5.18;2.30;;;;;;;10.16;100.00;96754.88;5062935;28;20080;-64
2024/04/06 01:48:41;;;;;;;5.00;2.70;;;;;;;10.14;100.00;96751.72;5047109;28;20072;-65
2024/04/06 01:51:07;;;;;;;4.63;2.60;;;;;;;10.02;100.00;96751.88;5054563;28;20103;-66
2024/04/06 01:53:32;;;;;;;5.78;2.40;;;;;;;10.06;100.00;96755.47;5060052;28;20098;-66
2024/04/06 01:55:58;;;;;;;3.50;2.20;;;;;;;10.05;100.00;96749.19;5060957;28;20032;-67
2024/04/06 01:58:23;;;;;;;8.07;2.30;;;;;;;9.94;100.00;96748.22;5055459;28;20457;-67
2024/04/06 02:00:48;;;;;;;5.25;2.20;;;;;;;9.61;100.00;96756.91;5067389;28;20112;-66
2024/04/06 02:03:14;;;;;;;3.60;1.98;;;;;;;9.64;100.00;96754.25;5067558;28;20067;-68
2024/04/06 02:05:39;;;;;;;3.15;1.98;;;;;;;9.51;100.00;96761.00;5045044;28;20797;-65
2024/04/06 02:08:05;;;;;;;4.70;2.15;;;;;;;9.54;100.00;96754.81;5054954;28;20049;-65
2024/04/06 02:10:30;;;;;;;3.97;2.28;;;;;;;9.38;100.00;96758.41;5059723;28;20044;-67
2024/04/06 02:12:55;;;;;;;6.50;2.15;;;;;;;9.32;100.00;96754.34;5059873;28;20048;-65
2024/04/06 02:15:22;;;;;;;8.13;2.33;;;;;;;9.23;100.00;96755.69;5055512;28;20427;-66
2024/04/06 02:17:48;;;;;;;4.70;2.08;;;;;;;9.28;100.00;96761.69;5043673;28;20039;-67
2024/04/06 02:20:16;;;;;;;4.68;2.67;;;;;;;9.28;100.00;96760.88;5004006;28;20033;-66
2024/04/06 02:22:42;;;;;;;3.17;2.10;;;;;;;9.08;100.00;96760.06;5037190;28;20131;-65
2024/04/06 02:25:07;;;;;;;5.00;2.53;;;;;;;9.07;100.00;96759.25;5040592;28;20576;-65
2024/04/06 02:27:33;;;;;;;5.18;2.38;;;;;;;9.06;100.00;96760.41;5046870;28;20044;-67
2024/04/06 02:29:59;;;;;;;3.70;2.50;;;;;;;8.82;100.00;96760.59;5060184;28;20071;-66
2024/04/06 02:32:26;;;;;;;5.78;2.65;;;;;;;8.83;100.00;96767.66;5055341;28;20071;-67
2024/04/06 02:34:54;;;;;;;3.75;2.30;;;;;;;8.68;100.00;96767.31;5058987;28;20048;-67
2024/04/06 02:37:20;;;;;;;5.55;2.08;;;;;;;8.58;100.00;96765.88;5024244;28;20040;-68
2024/04/06 02:39:45;;;;;;;5.07;2.70;;;;;;;8.40;100.00;96770.84;5043545;28;20033;-67
2024/04/06 02:42:11;;;;;;;4.22;2.05;;;;;;;8.33;100.00;96767.94;5054455;28;20060;-65
2024/04/06 02:44:36;;;;;;;3.97;2.55;;;;;;;8.25;100.00;96768.91;5060773;28;20040;-68
2024/04/06 02:47:02;;;;;;;6.03;2.60;;;;;;;8.23;100.00;96768.47;5054636;28;20033;-64
2024/04/06 02:49:28;;;;;;;5.80;2.70;;;;;;;8.37;100.00;96766.13;5059844;28;20510;-66
2024/04/06 02:51:54;;;;;;;5.00;2.35;;;;;;;8.55;100.00;96780.25;5067864;28;20049;-65
2024/04/06 02:54:19;;;;;;;4.55;2.75;;;;;;;8.70;100.00;96780.63;5057581;28;20046;-67
2024/04/06 02:56:45;;;;;;;4.05;2.40;;;;;;;8.86;100.00;96775.94;5076272;28;20052;-66
2024/04/06 02:59:10;;;;;;;9.65;3.22;;;;;;;8.88;100.00;96783.78;5040356;28;20139;-67
2024/04/06 03:01:38;;;;;;;5.93;2.33;;;;;;;8.66;100.00;96783.25;5044615;28;20040;-65
2024/04/06 03:04:04;;;;;;;5.68;2.47;;;;;;;8.44;100.00;96781.09;5056723;28;20083;-65
2024/04/06 03:06:30;;;;;;;6.70;2.45;;;;;;;8.31;100.00;96788.53;5060784;28;20131;-67
2024/04/06 03:08:55;;;;;;;4.43;2.38;;;;;;;8.27;100.00;96790.41;5059762;28;20052;-69
2024/04/06 03:11:21;;;;;;;5.07;2.67;;;;;;;8.24;100.00;96789.94;5056876;28;20052;-66
2024/04/06 03:13:47;;;;;;;5.95;2.60;;;;;;;8.40;100.00;96787.22;5061344;28;20089;-67
2024/04/06 03:16:13;;;;;;;2.85;2.17;;;;;;;8.48;100.00;96787.44;5053771;28;20028;-67
2024/04/06 03:18:38;;;;;;;4.85;2.08;;;;;;;8.34;100.00;96776.94;5062472;28;20047;-67
2024/04/06 03:21:04;;;;;;;9.38;3.10;;;;;;;8.11;100.00;96788.41;5056819;28;20139;-66
2024/04/06 03:23:30;;;;;;;5.13;2.60;;;;;;;8.10;100.00;96788.75;5062997;28;20056;-68
2024/04/06 03:25:56;;;;;;;4.22;2.50;;;;;;;8.13;100.00;96790.78;5045770;28;20047;-68
2024/04/06 03:28:22;;;;;;;5.15;2.50;;;;;;;8.04;100.00;96793.66;5039604;28;20309;-68
2024/04/06 03:30:47;;;;;;;4.78;2.25;;;;;;;8.09;100.00;96795.38;5061942;28;20280;-66
2024/04/06 03:33:12;;;;;;;4.07;2.60;;;;;;;8.28;100.00;96800.94;5055801;28;20039;-68
2024/04/06 03:35:38;;;;;;;5.45;2.33;;;;;;;8.30;100.00;96789.69;5059487;28;20078;-67
2024/04/06 03:38:03;;;;;;;6.03;2.50;;;;;;;8.29;100.00;96790.84;5059057;28;20044;-65
2024/04/06 03:40:29;;;;;;;4.43;2.58;;;;;;;8.08;100.00;96785.59;5050393;28;20033;-66
2024/04/06 03:42:56;;;;;;;5.50;2.65;;;;;;;7.89;100.00;96791.72;5072549;28;20044;-66
2024/04/06 03:45:21;;;;;;;4.78;2.40;;;;;;;7.76;100.00;96789.00;5069128;28;20253;-67
2024/04/06 03:47:47;;;;;;;5.78;2.60;;;;;;;7.64;100.00;96787.09;5073889;28;20041;-67
2024/04/06 03:50:14;;;;;;;7.32;2.55;;;;;;;7.58;100.00;96780.31;5046027;28;20059;-67
2024/04/06 03:52:40;;;;;;;6.95;2.60;;;;;;;7.47;100.00;96790.91;5060970;28;20048;-68
2024/04/06 03:55:05;;;;;;;4.45;2.60;;;;;;;7.58;100.00;96788.50;5058984;28;20911;-66
2024/04/06 03:57:41;;;;;;;4.63;2.67;;;;;;;7.88;100.00;96787.38;5048030;28;20139;-64
2024/04/06 04:00:08;;;;;;;6.53;2.75;;;;;;;7.89;100.00;96787.03;5025581;28;20061;-67
2024/04/06 04:02:36;;;;;;;7.22;2.72;;;;;;;7.93;100.00;96785.19;5063789;28;20047;-67
2024/04/06 04:05:02;;;;;;;3.85;2.35;;;;;;;8.00;100.00;96788.13;5060498;28;20566;-65
2024/04/06 04:07:27;;;;;;;4.50;2.33;;;;;;;7.96;100.00;96791.88;5062547;28;20052;-68
2024/04/06 04:09:53;;;;;;;3.25;2.10;;;;;;;7.79;100.00;96795.69;5062671;28;20040;-66
2024/04/06 04:12:18;;;;;;;6.32;2.35;;;;;;;7.73;100.00;96788.91;5059359;28;20124;-68
2024/04/06 04:14:44;;;;;;;3.28;2.30;;;;;;;7.71;100.00;96791.19;5062268;28;20051;-68
2024/04/06 04:17:10;;;;;;;4.45;2.45;;;;;;;7.80;100.00;96795.34;5058319;28;20127;-68
2024/04/06 04:19:35;;;;;;;4.75;2.50;;;;;;;7.70;100.00;96795.03;5062393;28;20040;-66
2024/04/06 04:22:01;;;;;;;4.97;2.95;;;;;;;7.73;100.00;96786.19;5062674;28;20140;-64
2024/04/06 04:24:26;;;;;;;10.63;2.53;;;;;;;7.91;100.00;96798.38;5060925;28;20066;-67
2024/04/06 04:26:51;;;;;;;7.43;3.15;;;;;;;7.87;100.00;96802.94;5063093;28;20040;-66
2024/04/06 04:29:17;;;;;;;3.95;2.20;;;;;;;7.74;100.00;96806.84;5056913;28;20044;-66
2024/04/06 04:31:43;;;;;;;4.10;2.88;;;;;;;7.69;100.00;96812.53;5046732;28;20098;-66
2024/04/06 04:34:08;;;;;;;6.18;2.42;;;;;;;7.56;100.00;96809.84;5060433;28;20449;-67
2024/04/06 04:36:35;;;;;;;4.93;2.53;;;;;;;7.61;100.00;96817.00;5064907;28;20044;-66
2024/04/06 04:39:00;;;;;;;4.15;2.58;;;;;;;7.37;100.00;96807.72;5067835;28;20051;-67
2024/04/06 04:41:26;;;;;;;4.25;2.70;;;;;;;7.05;100.00;96812.97;5062354;28;20052;-67
2024/04/06 04:43:51;;;;;;;4.45;2.65;;;;;;;7.25;100.00;96815.91;5063358;28;20040;-67
2024/04/06 04:46:17;;;;;;;4.15;2.53;;;;;;;7.07;100.00;96807.97;5058156;28;20039;-68
2024/04/06 04:49:01;;;;;;;4.65;2.47;;;;;;;7.35;100.00;96823.63;5065162;28;20045;-67
2024/04/06 04:51:27;;;;;;;5.53;2.80;;;;;;;7.52;100.00;96819.06;5056904;28;20044;-66
2024/04/06 04:53:54;;;;;;;4.15;2.33;;;;;;;7.62;100.00;96824.81;5062384;28;20041;-65
2024/04/06 04:56:19;;;;;;;5.65;3.00;;;;;;;7.63;100.00;96831.06;5059370;28;20119;-68
2024/04/06 04:58:46;;;;;;;6.78;2.67;;;;;;;7.70;100.00;96830.50;5062256;28;20139;-68
2024/04/06 05:01:12;;;;;;;3.60;2.60;;;;;;;7.72;100.00;96839.13;5057700;28;20071;-68
2024/04/06 05:03:37;;;;;;;6.65;3.20;;;;;;;7.64;100.00;96832.66;5048318;28;20040;-68
2024/04/06 05:06:03;;;;;;;6.05;2.85;;;;;;;7.59;100.00;96832.91;5062666;28;20040;-64
2024/04/06 05:08:29;;;;;;;10.07;3.28;;;;;;;7.66;100.00;96827.66;5065156;28;20155;-67
2024/04/06 05:10:55;;;;;;;4.60;2.50;;;;;;;7.65;100.00;96829.59;5065047;28;20036;-68
2024/04/06 05:13:21;;;;;;;6.53;2.55;;;;;;;7.73;100.00;96835.25;5063671;28;20048;-67
2024/04/06 05:15:48;;;;;;;3.70;2.42;;;;;;;7.98;100.00;96841.44;5064739;28;20135;-67
2024/04/06 05:18:14;;;;;;;3.65;2.50;;;;;;;8.16;100.00;96844.66;5040869;28;20131;-67
2024/04/06 05:20:40;;;;;;;4.03;2.60;;;;;;;8.24;100.00;96844.50;5049077;28;20087;-66
2024/04/06 05:23:06;;;;;;;4.78;2.58;;;;;;;8.41;100.00;96837.97;5066793;28;20067;-66
2024/04/06 05:25:31;;;;;;;7.85;3.00;;;;;;;8.74;100.00;96847.03;5063024;28;20036;-66
2024/04/06 05:27:56;;;;;;;5.28;2.30;;;;;;;8.91;100.00;96841.22;5061360;28;20123;-66
2024/04/06 05:30:22;;;;;;;4.15;2.10;;;;;;;9.16;100.00;96838.31;5059373;28;20881;-66
2024/04/06 05:32:48;;;;;;;5.72;2.70;;;;;;;9.77;100.00;96843.19;5064899;28;20138;-66
2024/04/06 05:35:13;;;;;;;2.47;1.90;;;;;;;10.64;100.00;96856.72;5055923;28;20045;-67
2024/04/06 05:37:39;;;;;;;6.38;3.00;;;;;;;11.62;100.00;96859.09;5064290;28;20037;-67
2024/04/06 05:40:05;;;;;;;4.68;2.42;;;;;;;12.53;100.00;96851.69;5058539;28;20170;-65
2024/04/06 05:42:30;;;;;;;6.35;2.17;;;;;;;13.77;100.00;96855.13;5064893;28;20518;-66
2024/04/06 05:44:56;;;;;;;4.40;1.92;;;;;;;14.99;100.00;96868.63;5063437;28;20044;-68
2024/04/06 05:47:21;;;;;;;3.33;1.73;;;;;;;15.72;96.95;96871.03;5055653;28;20351;-66
2024/04/06 05:49:47;;;;;;;3.72;1.83;;;;;;;16.22;91.57;96870.94;5067668;28;20619;-67
2024/04/06 05:52:13;;;;;;;3.70;1.58;;;;;;;16.08;89.30;96876.50;5045393;28;20056;-67
2024/04/06 05:54:39;;;;;;;3.17;1.38;;;;;;;16.33;87.09;96879.19;5076917;28;20064;-66
2024/04/06 05:57:04;;;;;;;6.07;1.90;;;;;;;16.68;85.28;96879.44;5055097;28;20044;-65
2024/04/06 05:59:30;;;;;;;9.93;2.00;;;;;;;17.40;81.73;96877.03;5063662;28;20117;-67
2024/04/06 06:01:55;;;;;;;4.13;1.83;;;;;;;18.09;73.75;96878.00;5061099;28;20036;-67
2024/04/06 06:04:21;;;;;;;5.25;2.20;;;;;;;18.76;69.35;96879.63;5046241;28;20067;-67
2024/04/06 06:06:46;;;;;;;7.88;2.70;;;;;;;18.39;65.01;96878.50;5041496;28;20143;-68
2024/04/06 06:09:12;;;;;;;7.32;2.70;;;;;;;17.52;74.85;96872.97;5056777;28;20467;-67
2024/04/06 06:11:37;;;;;;;6.32;2.75;;;;;;;18.03;70.75;96885.22;5060157;28;20047;-68
2024/04/06 06:14:03;;;;;;;10.60;2.30;;;;;;;18.34;71.56;96882.50;5055488;28;20045;-66
2024/04/06 06:16:28;;;;;;;11.00;2.55;;;;;;;19.51;66.30;96891.66;5060320;28;20075;-68
2024/04/06 06:18:54;;;;;;;6.20;2.42;;;;;;;20.35;60.63;96890.59;5059517;28;20110;-68
2024/04/06 06:21:19;;;;;;;6.25;2.47;;;;;;;19.70;61.56;96890.94;5055174;28;20109;-69
2024/04/06 06:23:45;;;;;;;5.00;2.55;;;;;;;21.42;56.46;96899.91;5060070;28;20567;-67
2024/04/06 06:26:11;;;;;;;13.07;3.83;;;;;;;21.34;54.15;96900.06;5054731;28;20040;-68
2024/04/06 06:28:36;;;;;;;4.57;2.20;;;;;;;22.24;53.43;96891.50;5042025;28;20406;-68
2024/04/06 06:31:04;;;;;;;22.08;14.35;;;;;;;21.38;53.35;96894.41;5044413;28;20048;-65
2024/04/06 06:33:29;;;;;;;4.75;2.60;;;;;;;21.15;56.55;96896.13;5067050;28;20433;-68
2024/04/06 06:35:55;;;;;;;5.10;2.88;;;;;;;21.85;55.34;96882.94;5046188;28;20040;-66
2024/04/06 06:38:20;;;;;;;6.55;3.90;;;;;;;21.81;53.70;96896.19;5058950;28;20044;-67
2024/04/06 06:40:49;;;;;;;8.70;3.88;;;;;;;22.74;50.94;96895.72;5060289;28;20094;-65
2024/04/06 06:43:14;;;;;;;6.72;4.28;;;;;;;22.06;51.65;96894.78;5055463;28;20033;-67
2024/04/06 06:45:40;;;;;;;6.03;2.58;;;;;;;22.78;50.77;96896.41;5042823;28;20105;-67
2024/04/06 06:48:05;;;;;;;7.85;2.35;;;;;;;22.87;48.83;96896.53;5054590;28;20045;-67
2024/04/06 06:50:31;;;;;;;6.18;1.85;;;;;;;23.69;46.89;96897.25;5061581;28;20055;-66
2024/04/06 06:52:56;;;;;;;6.75;1.75;;;;;;;23.05;41.72;96904.41;5061367;28;20051;-66
2024/04/06 06:55:22;;;;;;;4.65;1.50;;;;;;;21.44;45.71;96901.03;5055639;28;20044;-66
2024/04/06 06:57:47;;;;;;;4.75;1.48;;;;;;;21.82;45.87;96906.09;5054032;28;20625;-66
2024/04/06 07:00:14;;;;;;;3.33;1.52;;;;;;;23.95;40.36;96915.59;5036960;28;20215;-67
2024/04/06 07:02:40;;;;;;;4.80;1.52;;;;;;;24.99;37.20;96920.34;5061376;28;20047;-68
2024/04/06 07:05:05;;;;;;;6.50;1.80;;;;;;;24.39;37.83;96912.84;5037635;28;20040;-67
2024/04/06 07:07:31;;;;;;;2.42;0.95;;;;;;;24.63;37.20;96917.28;5060133;28;20127;-67
2024/04/06 07:09:57;;;;;;;3.63;1.20;;;;;;;24.29;37.55;96908.44;5059818;28;20036;-67
2024/04/06 07:12:23;;;;;;;5.00;1.20;;;;;;;22.83;40.68;96907.03;5054878;28;20266;-67
2024/04/06 07:14:48;;;;;;;3.28;1.05;;;;;;;24.56;37.96;96912.69;5061106;28;20037;-66
2024/04/06 07:17:16;;;;;;;4.35;1.42;;;;;;;24.91;37.20;96907.03;5055880;28;20690;-66
2024/04/06 07:19:41;;;;;;;3.08;1.40;;;;;;;25.18;37.16;96910.00;5060464;28;20051;-67
2024/04/06 07:22:07;;;;;;;5.80;1.58;;;;;;;24.38;36.32;96907.72;5042672;28;20032;-68
2024/04/06 07:24:32;;;;;;;3.63;1.17;;;;;;;24.37;37.43;96908.97;5069959;28;20086;-66
2024/04/06 07:26:58;;;;;;;3.50;1.67;;;;;;;25.43;35.14;96911.06;5060542;28;20043;-68
2024/04/06 07:29:24;;;;;;;3.92;1.33;;;;;;;24.80;37.17;96899.81;5054075;28;20477;-68
2024/04/06 07:31:49;;;;;;;6.50;1.50;;;;;;;24.50;36.80;96903.31;5059045;28;20127;-67
2024/04/06 07:34:14;;;;;;;4.60;1.48;;;;;;;24.63;37.04;96908.88;5054414;28;20127;-67
2024/04/06 07:36:40;;;;;;;5.80;1.50;;;;;;;25.94;34.84;96921.06;5059165;28;20033;-66
2024/04/06 07:39:05;;;;;;;3.15;1.38;;;;;;;26.02;34.90;96921.53;5054218;28;20051;-68
2024/04/06 07:41:31;;;;;;;6.40;1.88;;;;;;;26.15;34.06;96918.63;5059573;28;20123;-67
2024/04/06 07:43:56;;;;;;;5.43;1.30;;;;;;;26.70;33.53;96905.41;5060382;28;20044;-67
2024/04/06 07:46:21;;;;;;;3.85;1.55;;;;;;;27.25;32.63;96912.16;5055263;28;20071;-69
2024/04/06 07:48:47;;;;;;;3.67;1.60;;;;;;;24.85;35.86;96906.06;5041094;28;20204;-69
2024/04/06 07:51:13;;;;;;;6.13;1.77;;;;;;;24.74;36.00;96906.44;5053823;28;20037;-67
2024/04/06 07:53:39;;;;;;;5.30;2.00;;;;;;;22.09;41.66;96891.91;5042537;28;20040;-67
2024/04/06 07:56:04;;;;;;;4.30;2.10;;;;;;;22.05;43.66;96882.81;5054589;28;20363;-65
2024/04/06 07:58:30;;;;;;;4.28;2.08;;;;;;;20.60;45.93;96875.41;5058625;28;20048;-68
2024/04/06 08:00:55;;;;;;;4.70;2.17;;;;;;;20.39;48.09;96882.97;5060187;28;20052;-67
2024/04/06 08:03:21;;;;;;;5.15;2.13;;;;;;;20.99;48.85;96879.38;5055688;28;20438;-69
2024/04/06 08:05:52;;;;;;;7.10;2.22;;;;;;;21.61;47.61;96881.56;5058490;28;20051;-70
2024/04/06 08:08:18;;;;;;;5.85;2.45;;;;;;;20.77;47.52;96890.19;5054657;28;20059;-70
2024/04/06 08:10:43;;;;;;;9.25;2.35;;;;;;;23.16;43.79;96884.53;5059950;28;20394;-67
2024/04/06 08:13:12;;;;;;;7.03;2.20;;;;;;;23.67;42.91;96895.66;5053081;28;20093;-69
2024/04/06 08:15:38;;;;;;;6.43;2.45;;;;;;;25.30;39.22;96901.97;5058452;28;20043;-68
2024/04/06 08:18:03;;;;;;;7.20;2.15;;;;;;;24.90;38.52;96903.47;5054500;28;20128;-67
2024/04/06 08:20:29;;;;;;;7.97;2.78;;;;;;;25.02;40.06;96904.63;5040863;28;20043;-68
2024/04/06 08:22:54;;;;;;;5.72;2.15;;;;;;;26.24;37.24;96908.19;5041209;28;20696;-67
2024/04/06 08:25:19;;;;;;;5.53;1.90;;;;;;;25.25;39.03;96906.16;5054877;28;21987;-67
2024/04/06 08:27:45;;;;;;;10.32;2.78;;;;;;;26.45;36.71;96903.66;5059874;28;20045;-67
2024/04/06 08:30:12;;;;;;;7.53;1.90;;;;;;;25.80;38.04;96904.78;5054281;28;20072;-68
2024/04/06 08:32:40;;;;;;;7.70;2.92;;;;;;;26.92;36.67;96903.63;5060833;28;20463;-66
2024/04/06 08:35:16;;;;;;;4.40;2.03;;;;;;;26.84;36.86;96906.00;5055939;28;20037;-66
2024/04/06 08:37:42;;;;;;;6.22;1.80;;;;;;;26.72;37.21;96910.53;5058879;28;20455;-67
2024/04/06 08:40:11;;;;;;;9.90;2.33;;;;;;;26.88;36.00;96909.41;5055733;28;20132;-66
2024/04/06 08:42:40;;;;;;;4.87;2.90;;;;;;;26.60;36.12;96912.22;5063938;28;20047;-67
2024/04/06 08:45:10;;;;;;;8.07;2.50;;;;;;;26.45;36.41;96908.47;5040864;28;20036;-67
2024/04/06 08:47:36;;;;;;;7.78;1.58;;;;;;;25.18;38.09;96910.00;5045428;28;20102;-67
2024/04/06 08:50:06;;;;;;;8.43;1.65;;;;;;;25.82;38.39;96910.72;5041676;28;20672;-65
2024/04/06 08:52:37;;;;;;;4.85;1.55;;;;;;;25.75;37.85;96909.78;5063060;28;20052;-68
2024/04/06 08:55:04;;;;;;;2.78;1.42;;;;;;;25.11;39.56;96913.06;5061169;28;20055;-64
2024/04/06 08:57:37;;;;;;;3.10;1.48;;;;;;;25.28;39.49;96910.84;5057804;28;20097;-67
2024/04/06 09:00:11;;;;;;;5.45;1.58;;;;;;;25.16;39.97;96906.88;5042242;28;20399;-64
2024/04/06 09:02:37;;;;;;;4.80;1.90;;;;;;;26.42;37.28;96915.06;5046853;28;20109;-67
2024/04/06 09:05:04;;;;;;;5.07;1.70;;;;;;;26.28;37.00;96917.22;5056000;28;20495;-66
2024/04/06 09:07:30;;;;;;;7.32;1.52;;;;;;;25.84;37.68;96911.03;5062002;28;20604;-66
2024/04/06 09:09:56;;;;;;;3.95;1.52;;;;;;;25.41;38.42;96905.16;5044355;28;20052;-68
2024/04/06 09:12:21;;;;;;;4.70;1.45;;;;;;;26.48;37.05;96902.72;5068741;28;20068;-66
2024/04/06 09:14:48;;;;;;;6.32;2.05;;;;;;;27.33;35.36;96906.97;5063508;28;20147;-66
2024/04/06 09:17:15;;;;;;;4.93;1.48;;;;;;;27.13;36.14;96902.63;5041026;28;20101;-67
2024/04/06 09:19:41;;;;;;;4.00;1.40;;;;;;;26.83;35.92;96904.41;5061998;28;20040;-67
2024/04/06 09:22:07;;;;;;;5.35;1.77;;;;;;;26.63;36.53;96894.47;5057991;28;20375;-66
2024/04/06 09:24:32;;;;;;;7.75;1.45;;;;;;;26.65;36.33;96891.97;5045430;28;20387;-67
2024/04/06 09:27:12;;;;;;;6.05;1.75;;;;;;;26.69;37.92;96894.63;5064399;28;20047;-67
2024/04/06 09:29:47;;;;;;;3.67;1.60;;;;;;;26.39;38.87;96888.69;5062803;28;20055;-69
2024/04/06 09:32:16;;;;;;;4.80;1.30;;;;;;;26.89;37.53;96891.31;5057585;28;20032;-69
2024/04/06 09:34:51;;;;;;;3.97;1.38;;;;;;;26.63;37.59;96882.44;5065258;28;20052;-68
2024/04/06 09:37:27;;;;;;;3.08;1.27;;;;;;;26.19;39.14;96880.72;5059803;28;20494;-68
2024/04/06 09:39:54;;;;;;;5.57;2.25;;;;;;;26.46;38.64;96887.59;5065245;28;20040;-67
2024/04/06 09:42:22;;;;;;;6.88;1.65;;;;;;;25.84;39.55;96880.97;5057766;28;20533;-66
2024/04/06 09:44:49;;;;;;;9.07;2.40;;;;;;;24.98;41.50;96870.34;5045063;28;20040;-67
2024/04/06 09:47:16;;;;;;;5.60;1.67;;;;;;;24.57;41.62;96875.84;5058354;28;20487;-66
2024/04/06 09:49:42;;;;;;;7.38;1.95;;;;;;;23.90;42.33;96868.59;5062944;28;20132;-68
2024/04/06 09:52:08;;;;;;;4.80;1.65;;;;;;;24.73;41.49;96871.31;5057798;28;20068;-67
2024/04/06 09:54:34;;;;;;;7.63;2.92;;;;;;;25.44;39.97;96869.78;5064162;28;20044;-67
2024/04/06 09:57:00;;;;;;;6.35;2.05;;;;;;;25.30;39.58;96863.53;5060553;28;20135;-69
2024/04/06 09:59:28;;;;;;;3.55;1.70;;;;;;;25.25;40.84;96863.34;5058180;28;20052;-68
2024/04/06 10:01:56;;;;;;;4.60;1.35;;;;;;;24.86;40.22;96865.63;5072862;28;20028;-67
2024/04/06 10:04:33;;;;;;;4.38;1.70;;;;;;;23.35;44.57;96854.00;5070145;28;20457;-65
2024/04/06 10:07:03;;;;;;;8.55;2.03;;;;;;;23.99;43.55;96849.09;5070731;28;20074;-69
2024/04/06 10:09:30;;;;;;;5.95;2.13;;;;;;;24.81;43.14;96858.56;5047750;28;20032;-67
2024/04/06 10:12:05;;;;;;;4.63;1.67;;;;;;;24.86;42.32;96852.38;5062950;28;20032;-68
2024/04/06 10:14:30;;;;;;;4.28;1.95;;;;;;;25.51;40.64;96859.06;5061708;28;20028;-67
2024/04/06 10:17:09;;;;;;;4.38;1.58;;;;;;;25.77;38.58;96861.63;5062635;28;20032;-66
2024/04/06 10:19:35;;;;;;;4.25;1.63;;;;;;;25.56;38.05;96861.25;5052586;28;20421;-66
2024/04/06 10:22:03;;;;;;;6.13;1.90;;;;;;;25.83;38.85;96851.34;5042266;28;20044;-64
2024/04/06 10:24:29;;;;;;;5.78;2.00;;;;;;;25.65;40.97;96852.09;5061117;28;20465;-66
2024/04/06 10:26:56;;;;;;;4.85;1.30;;;;;;;25.97;40.57;96838.78;5061662;28;20127;-64
2024/04/06 10:29:22;;;;;;;4.30;2.15;;;;;;;26.07;39.26;96850.78;5057102;28;20044;-68
2024/04/06 10:31:48;;;;;;;8.52;4.35;;;;;;;26.11;40.21;96852.19;5044500;28;20040;-67
2024/04/06 10:34:14;;;;;;;6.22;1.52;;;;;;;25.93;39.97;96846.56;5055292;28;20040;-67
2024/04/06 10:36:40;;;;;;;7.03;1.40;;;;;;;26.17;38.39;96857.19;5044242;28;20364;-67
2024/04/06 10:39:07;;;;;;;3.88;1.50;;;;;;;26.47;37.53;96852.63;5037983;28;20037;-67
2024/04/06 10:41:34;;;;;;;5.72;1.60;;;;;;;26.70;36.64;96849.22;5052294;28;20036;-69
2024/04/06 10:44:00;;;;;;;7.18;1.95;;;;;;;26.58;37.05;96847.31;5059983;28;20044;-67
2024/04/06 10:46:26;;;;;;;7.78;2.05;;;;;;;27.07;37.01;96851.13;5056289;28;20044;-66
2024/04/06 10:48:53;;;;;;;6.93;1.52;;;;;;;26.66;37.42;96833.75;5064247;28;20043;-67
2024/04/06 10:51:18;;;;;;;7.60;1.80;;;;;;;26.61;37.34;96831.56;5057500;28;20036;-67
2024/04/06 10:53:45;;;;;;;4.05;1.60;;;;;;;26.82;36.81;96838.25;5061739;28;20500;-67
2024/04/06 10:56:10;;;;;;;3.78;1.70;;;;;;;26.40;37.68;96825.66;5057104;28;20102;-68
2024/04/06 10:58:36;;;;;;;2.78;1.25;;;;;;;25.79;37.77;96833.88;5063179;28;20059;-68
2024/04/06 11:01:11;;;;;;;4.45;1.60;;;;;;;26.14;38.16;96828.00;5074160;28;20123;-64
2024/04/06 11:03:37;;;;;;;4.30;1.40;;;;;;;26.52;37.92;96819.09;5058198;28;20039;-68
2024/04/06 11:06:03;;;;;;;5.07;1.42;;;;;;;26.50;37.03;96824.38;5058237;28;20040;-66
2024/04/06 11:08:29;;;;;;;3.83;1.60;;;;;;;26.01;38.27;96818.97;5060358;28;20053;-68
2024/04/06 11:10:55;;;;;;;5.45;1.80;;;;;;;25.22;40.78;96813.78;5061822;28;20041;-67
2024/04/06 11:13:22;;;;;;;2.70;1.30;;;;;;;25.32;40.78;96813.38;5031749;28;20120;-67
2024/04/06 11:15:49;;;;;;;6.07;1.77;;;;;;;24.80;40.94;96810.19;5062023;28;20115;-67
2024/04/06 11:18:15;;;;;;;4.63;1.77;;;;;;;25.22;40.38;96816.59;5055455;28;20110;-67
2024/04/06 11:20:41;;;;;;;5.43;1.60;;;;;;;24.96;41.69;96800.00;5060346;28;20040;-68
2024/04/06 11:23:26;;;;;;;5.25;1.63;;;;;;;25.28;42.05;96809.16;5055987;28;20103;-67
2024/04/06 11:25:51;;;;;;;5.25;1.58;;;;;;;25.43;40.95;96812.94;5060373;28;20560;-68
2024/04/06 11:28:17;;;;;;;6.20;1.58;;;;;;;25.45;41.36;96815.28;5054868;28;20045;-68